createdAt,value
2017-11-29T00:00:12.469Z,39.39
2017-11-29T00:00:44.581Z,39.29
2017-11-29T00:01:16.690Z,38.99
2017-11-29T00:01:48.778Z,39.37
2017-11-29T00:03:40.480Z,39.18
2017-11-29T00:04:12.580Z,39.18
2017-11-29T00:07:23.824Z,39.11
2017-11-29T00:09:15.422Z,39.18
2017-11-29T00:09:47.515Z,39.2
2017-11-29T00:11:38.908Z,39.09
2017-11-29T00:12:11.027Z,39.2
2017-11-29T00:14:02.414Z,39.2
2017-11-29T00:14:34.528Z,39.2
2017-11-29T00:16:26.322Z,39.18
2017-11-29T00:16:58.427Z,39.11
2017-11-29T00:17:30.526Z,39.2
2017-11-29T00:18:02.608Z,39.11
2017-11-29T00:18:34.711Z,39.11
2017-11-29T00:21:45.990Z,39.2
2017-11-29T00:22:18.104Z,39.2
2017-11-29T00:22:50.193Z,39.29
2017-11-29T00:24:41.764Z,39.29
2017-11-29T00:25:13.854Z,39.2
2017-11-29T00:25:45.970Z,39.01
2017-11-29T00:26:18.086Z,39.11
2017-11-29T00:26:50.185Z,39.29
2017-11-29T00:27:22.309Z,39.01
2017-11-29T00:27:54.404Z,39.2
2017-11-29T00:28:26.529Z,38.91
2017-11-29T00:28:58.641Z,39.2
2017-11-29T00:29:30.759Z,39.29
2017-11-29T00:30:02.860Z,39.2
2017-11-29T00:30:34.973Z,39.11
2017-11-29T00:31:07.071Z,39.01
2017-11-29T00:31:39.192Z,39.2
2017-11-29T00:32:11.300Z,39.29
2017-11-29T00:34:02.922Z,39.2
2017-11-29T00:34:35.025Z,39.2
2017-11-29T00:35:07.137Z,39.11
2017-11-29T00:36:58.763Z,39.11
2017-11-29T00:37:30.875Z,39.11
2017-11-29T00:38:02.988Z,39.2
2017-11-29T00:38:35.121Z,39.2
2017-11-29T00:39:07.202Z,39.11
2017-11-29T00:40:58.760Z,39.11
2017-11-29T00:41:30.840Z,39.2
2017-11-29T00:42:02.945Z,39.11
2017-11-29T00:42:35.061Z,39.2
2017-11-29T00:44:26.428Z,39.29
2017-11-29T00:44:58.511Z,39.11
2017-11-29T00:45:30.613Z,39.11
2017-11-29T00:46:02.728Z,39.2
2017-11-29T00:46:34.822Z,39.2
2017-11-29T00:47:06.943Z,39.2
2017-11-29T00:47:39.034Z,39.2
2017-11-29T00:48:11.148Z,39.11
2017-11-29T00:48:43.251Z,39.2
2017-11-29T00:49:15.355Z,39.2
2017-11-29T00:49:47.469Z,39.2
2017-11-29T00:52:58.501Z,39.2
2017-11-29T00:53:30.591Z,39.2
2017-11-29T00:55:21.943Z,39.2
2017-11-29T00:55:54.042Z,39.2
2017-11-29T00:56:26.145Z,39.2
2017-11-29T00:56:58.250Z,39.11
2017-11-29T00:57:30.364Z,39.2
2017-11-29T00:58:02.466Z,39.01
2017-11-29T00:59:53.944Z,39.2
2017-11-29T01:00:26.051Z,39.2
2017-11-29T01:00:58.164Z,39.2
2017-11-29T01:01:30.272Z,39.2
2017-11-29T01:02:02.369Z,39.2
2017-11-29T01:02:34.490Z,39.2
2017-11-29T01:03:06.592Z,39.11
2017-11-29T01:03:38.694Z,39.2
2017-11-29T01:04:10.811Z,39.01
2017-11-29T01:04:42.933Z,39.01
2017-11-29T01:05:15.041Z,39.2
2017-11-29T01:05:47.158Z,39.2
2017-11-29T01:06:19.277Z,39.2
2017-11-29T01:09:30.274Z,39.2
2017-11-29T01:10:02.396Z,38.91
2017-11-29T01:10:34.501Z,38.91
2017-11-29T01:11:06.612Z,39.11
2017-11-29T01:11:38.733Z,39.01
2017-11-29T01:12:10.846Z,39.2
2017-11-29T01:12:42.950Z,38.91
2017-11-29T01:13:15.035Z,39.01
2017-11-29T01:13:47.115Z,39.2
2017-11-29T01:14:19.217Z,38.81
2017-11-29T01:14:51.312Z,39.2
2017-11-29T01:15:28.048Z,39.01
2017-11-29T01:16:00.141Z,39.2
2017-11-29T01:16:32.248Z,39.11
2017-11-29T01:17:04.369Z,39.11
2017-11-29T01:18:55.944Z,39.01
2017-11-29T01:19:28.037Z,39.01
2017-11-29T01:20:00.147Z,39.01
2017-11-29T01:20:32.256Z,39.01
2017-11-29T01:22:23.874Z,38.91
2017-11-29T01:22:55.966Z,39.01
2017-11-29T01:23:28.087Z,39.01
2017-11-29T01:24:00.200Z,39.01
2017-11-29T01:24:32.274Z,39.01
2017-11-29T01:25:04.393Z,38.91
2017-11-29T01:25:36.478Z,38.81
2017-11-29T01:27:28.026Z,39.11
2017-11-29T01:28:00.134Z,39.11
2017-11-29T01:28:32.249Z,38.81
2017-11-29T01:29:04.357Z,39.01
2017-11-29T01:29:36.472Z,38.91
2017-11-29T01:30:08.596Z,39.01
2017-11-29T01:30:40.695Z,38.91
2017-11-29T01:31:12.791Z,38.81
2017-11-29T01:31:44.909Z,39.01
2017-11-29T01:32:17.025Z,39.01
2017-11-29T01:32:49.129Z,38.91
2017-11-29T01:33:21.248Z,39.01
2017-11-29T01:33:53.350Z,38.91
2017-11-29T01:34:25.454Z,38.81
2017-11-29T01:34:57.551Z,39.11
2017-11-29T01:38:08.868Z,38.81
2017-11-29T01:40:00.303Z,38.91
2017-11-29T01:41:51.962Z,38.81
2017-11-29T01:42:24.082Z,38.91
2017-11-29T01:42:56.198Z,38.81
2017-11-29T01:43:28.306Z,38.91
2017-11-29T01:44:00.422Z,38.81
2017-11-29T01:44:32.513Z,38.81
2017-11-29T01:45:04.612Z,38.91
2017-11-29T01:45:36.734Z,38.81
2017-11-29T01:47:28.384Z,39.01
2017-11-29T01:49:19.805Z,38.91
2017-11-29T01:49:51.909Z,38.81
2017-11-29T01:51:43.307Z,39.11
2017-11-29T01:52:15.416Z,39.01
2017-11-29T01:52:47.500Z,38.81
2017-11-29T01:53:19.575Z,39.01
2017-11-29T01:53:51.689Z,38.71
2017-11-29T01:54:23.780Z,39.01
2017-11-29T01:54:55.864Z,38.81
2017-11-29T01:55:27.984Z,39.01
2017-11-29T01:56:00.100Z,39.01
2017-11-29T01:56:32.182Z,39.11
2017-11-29T01:57:04.295Z,38.62
2017-11-29T01:57:36.394Z,38.71
2017-11-29T01:58:08.506Z,38.81
2017-11-29T01:58:40.610Z,38.81
2017-11-29T01:59:12.712Z,38.81
2017-11-29T01:59:44.816Z,38.91
2017-11-29T02:00:16.921Z,38.81
2017-11-29T02:00:48.998Z,39.01
2017-11-29T02:01:21.122Z,38.91
2017-11-29T02:01:53.222Z,38.81
2017-11-29T02:02:25.322Z,38.62
2017-11-29T02:02:57.442Z,39.01
2017-11-29T02:03:29.535Z,38.71
2017-11-29T02:04:01.625Z,38.91
2017-11-29T02:04:33.731Z,38.91
2017-11-29T02:05:05.844Z,38.81
2017-11-29T02:05:37.958Z,38.81
2017-11-29T02:06:10.064Z,38.81
2017-11-29T02:06:42.153Z,38.81
2017-11-29T02:08:33.548Z,38.91
2017-11-29T02:09:05.634Z,38.81
2017-11-29T02:10:56.977Z,38.81
2017-11-29T02:11:29.083Z,38.91
2017-11-29T02:13:20.478Z,38.81
2017-11-29T02:15:12.194Z,38.91
2017-11-29T02:18:34.666Z,38.81
2017-11-29T02:19:06.691Z,38.81
2017-11-29T02:19:38.752Z,38.71
2017-11-29T02:20:10.775Z,38.81
2017-11-29T02:20:42.801Z,38.81
2017-11-29T02:21:14.935Z,38.81
2017-11-29T02:21:46.966Z,38.62
2017-11-29T02:22:18.985Z,38.62
2017-11-29T02:22:51.747Z,38.62
2017-11-29T02:23:23.768Z,38.81
2017-11-29T02:23:55.808Z,38.81
2017-11-29T02:24:27.812Z,38.81
2017-11-29T02:24:59.846Z,38.43
2017-11-29T02:25:31.870Z,38.53
2017-11-29T02:26:03.912Z,38.81
2017-11-29T02:26:35.939Z,38.81
2017-11-29T02:27:08.044Z,38.81
2017-11-29T02:27:40.033Z,38.81
2017-11-29T02:28:12.049Z,38.62
2017-11-29T02:28:44.075Z,38.43
2017-11-29T02:29:16.111Z,38.33
2017-11-29T02:29:48.141Z,38.43
2017-11-29T02:30:20.132Z,38.53
2017-11-29T02:30:52.189Z,38.43
2017-11-29T02:31:24.244Z,38.53
2017-11-29T02:31:56.260Z,38.43
2017-11-29T02:32:28.311Z,38.53
2017-11-29T02:33:00.300Z,38.53
2017-11-29T02:33:32.348Z,38.62
2017-11-29T02:34:04.461Z,38.53
2017-11-29T02:34:36.482Z,38.33
2017-11-29T02:35:08.521Z,38.23
2017-11-29T02:35:40.486Z,38.23
2017-11-29T02:36:12.661Z,38.23
2017-11-29T02:36:44.671Z,38.43
2017-11-29T02:37:16.686Z,38.33
2017-11-29T02:37:48.731Z,38.53
2017-11-29T02:38:20.753Z,38.53
2017-11-29T02:38:52.788Z,38.43
2017-11-29T02:39:24.809Z,38.23
2017-11-29T02:39:56.861Z,38.23
2017-11-29T02:40:28.916Z,38.14
2017-11-29T02:41:00.971Z,38.33
2017-11-29T02:41:32.972Z,38.33
2017-11-29T02:42:04.979Z,38.33
2017-11-29T02:42:37.036Z,38.23
2017-11-29T02:43:09.100Z,38.23
2017-11-29T02:43:41.129Z,38.14
2017-11-29T02:44:13.165Z,38.33
2017-11-29T02:44:45.194Z,38.04
2017-11-29T02:45:17.211Z,38.43
2017-11-29T02:45:49.243Z,38.43
2017-11-29T02:46:21.292Z,38.14
2017-11-29T02:46:53.346Z,38.43
2017-11-29T02:47:25.346Z,38.33
2017-11-29T02:47:57.366Z,38.33
2017-11-29T02:48:29.392Z,38.33
2017-11-29T02:49:01.407Z,38.62
2017-11-29T02:49:33.426Z,38.33
2017-11-29T02:50:05.461Z,38.14
2017-11-29T02:50:37.495Z,38.33
2017-11-29T02:51:09.541Z,38.71
2017-11-29T02:51:41.655Z,38.14
2017-11-29T02:52:13.686Z,38.43
2017-11-29T02:52:45.711Z,38.43
2017-11-29T02:53:17.826Z,38.14
2017-11-29T02:53:49.860Z,38.33
2017-11-29T02:54:21.909Z,38.43
2017-11-29T02:54:53.947Z,38.62
2017-11-29T02:55:25.992Z,38.23
2017-11-29T02:55:58.022Z,38.33
2017-11-29T02:56:30.036Z,38.62
2017-11-29T02:57:02.094Z,38.33
2017-11-29T02:57:34.106Z,38.53
2017-11-29T02:58:06.134Z,38.33
2017-11-29T02:58:38.150Z,38.71
2017-11-29T02:59:10.184Z,38.04
2017-11-29T02:59:42.195Z,38.23
2017-11-29T03:00:14.214Z,38.23
2017-11-29T03:00:46.216Z,38.71
2017-11-29T03:01:18.254Z,38.33
2017-11-29T03:01:50.272Z,38.53
2017-11-29T03:02:22.248Z,38.33
2017-11-29T03:02:54.271Z,38.43
2017-11-29T03:03:26.298Z,38.43
2017-11-29T03:03:58.350Z,38.62
2017-11-29T03:04:30.352Z,38.25
2017-11-29T03:05:02.387Z,38.23
2017-11-29T03:05:34.408Z,38.23
2017-11-29T03:06:06.442Z,38.04
2017-11-29T03:06:38.457Z,38.53
2017-11-29T03:07:10.582Z,38.43
2017-11-29T03:07:42.590Z,38.53
2017-11-29T03:08:14.627Z,38.33
2017-11-29T03:08:46.660Z,38.53
2017-11-29T03:09:18.691Z,38.43
2017-11-29T03:09:50.717Z,38.04
2017-11-29T03:10:22.714Z,38.53
2017-11-29T03:10:54.733Z,38.33
2017-11-29T03:11:26.755Z,38.43
2017-11-29T03:11:58.810Z,37.95
2017-11-29T03:12:30.826Z,38.33
2017-11-29T03:13:02.865Z,38.33
2017-11-29T03:13:34.917Z,38.23
2017-11-29T03:14:06.926Z,38.33
2017-11-29T03:14:38.930Z,38.43
2017-11-29T03:15:10.945Z,38.53
2017-11-29T03:15:43.020Z,38.62
2017-11-29T03:16:15.090Z,37.95
2017-11-29T03:16:47.184Z,37.96
2017-11-29T03:17:19.267Z,38.53
2017-11-29T03:17:51.290Z,38.53
2017-11-29T03:18:23.311Z,38.53
2017-11-29T03:18:55.320Z,38.64
2017-11-29T03:19:27.377Z,38.43
2017-11-29T03:19:59.412Z,37.95
2017-11-29T03:20:31.461Z,38.62
2017-11-29T03:21:03.480Z,38.43
2017-11-29T03:21:35.496Z,38.71
2017-11-29T03:22:07.502Z,38.43
2017-11-29T03:22:39.557Z,38.62
2017-11-29T03:23:11.622Z,38.14
2017-11-29T03:23:43.590Z,38.62
2017-11-29T03:24:15.629Z,38.71
2017-11-29T03:24:47.659Z,38.62
2017-11-29T03:25:19.674Z,38.71
2017-11-29T03:25:51.790Z,38.71
2017-11-29T03:26:23.786Z,38.23
2017-11-29T03:26:55.810Z,38.14
2017-11-29T03:27:27.772Z,38.43
2017-11-29T03:27:59.793Z,38.14
2017-11-29T03:28:31.824Z,38.71
2017-11-29T03:29:03.992Z,38.14
2017-11-29T03:29:36.105Z,38.33
2017-11-29T03:30:08.238Z,38.33
2017-11-29T03:30:40.257Z,38.62
2017-11-29T03:31:12.309Z,38.71
2017-11-29T03:31:44.332Z,38.14
2017-11-29T03:32:16.460Z,38.43
2017-11-29T03:32:48.500Z,38.43
2017-11-29T03:33:20.519Z,38.74
2017-11-29T03:33:52.544Z,38.33
2017-11-29T03:34:24.587Z,38.33
2017-11-29T03:34:56.597Z,38.71
2017-11-29T03:35:28.665Z,38.14
2017-11-29T03:36:00.700Z,38.62
2017-11-29T03:36:32.739Z,38.33
2017-11-29T03:37:04.757Z,38.33
2017-11-29T03:37:36.752Z,38.33
2017-11-29T03:38:08.816Z,38.33
2017-11-29T03:38:40.853Z,38.14
2017-11-29T03:39:12.888Z,38.23
2017-11-29T03:39:44.914Z,38.62
2017-11-29T03:40:16.984Z,38.33
2017-11-29T03:40:49.040Z,38.33
2017-11-29T03:41:21.069Z,38.33
2017-11-29T03:41:53.056Z,38.23
2017-11-29T03:42:25.177Z,38.62
2017-11-29T03:42:57.217Z,38.62
2017-11-29T03:43:29.227Z,38.33
2017-11-29T03:44:01.252Z,38.23
2017-11-29T03:44:33.296Z,38.43
2017-11-29T03:45:05.326Z,38.33
2017-11-29T03:45:37.353Z,38.23
2017-11-29T03:46:09.361Z,38.33
2017-11-29T03:46:41.393Z,38.23
2017-11-29T03:47:13.417Z,38.33
2017-11-29T03:47:45.426Z,38.33
2017-11-29T03:48:17.456Z,38.33
2017-11-29T03:48:49.478Z,38.23
2017-11-29T03:49:21.502Z,38.33
2017-11-29T03:49:53.528Z,38.43
2017-11-29T03:50:25.560Z,38.23
2017-11-29T03:50:57.633Z,38.43
2017-11-29T03:51:29.663Z,38.33
2017-11-29T03:52:01.642Z,38.33
2017-11-29T03:52:33.675Z,38.33
2017-11-29T03:53:05.790Z,38.23
2017-11-29T03:53:37.811Z,38.23
2017-11-29T03:54:09.821Z,38.23
2017-11-29T03:54:41.824Z,38.23
2017-11-29T03:55:13.831Z,38.33
2017-11-29T03:55:49.601Z,38.23
2017-11-29T03:56:21.647Z,38.14
2017-11-29T03:56:53.687Z,38.23
2017-11-29T03:57:25.714Z,38.33
2017-11-29T03:57:57.709Z,38.04
2017-11-29T03:58:29.834Z,38.33
2017-11-29T03:59:01.830Z,38.23
2017-11-29T03:59:33.849Z,38.23
2017-11-29T04:00:05.859Z,38.33
2017-11-29T04:00:37.910Z,38.14
2017-11-29T04:01:09.926Z,38.04
2017-11-29T04:01:41.942Z,38.23
2017-11-29T04:02:13.982Z,38.43
2017-11-29T04:02:46.143Z,38.33
2017-11-29T04:03:18.119Z,38.14
2017-11-29T04:03:50.173Z,38.04
2017-11-29T04:04:22.259Z,38.33
2017-11-29T04:04:54.279Z,38.04
2017-11-29T04:05:26.283Z,38.23
2017-11-29T04:05:58.306Z,38.23
2017-11-29T04:06:30.332Z,38.23
2017-11-29T04:07:02.344Z,38.33
2017-11-29T04:07:34.379Z,38.23
2017-11-29T04:08:06.399Z,38.04
2017-11-29T04:08:38.409Z,38.04
2017-11-29T04:09:10.440Z,38.04
2017-11-29T04:09:42.467Z,38.23
2017-11-29T04:10:14.487Z,38.33
2017-11-29T04:10:46.530Z,37.95
2017-11-29T04:11:18.554Z,38.33
2017-11-29T04:11:50.578Z,38.23
2017-11-29T04:12:22.594Z,38.04
2017-11-29T04:12:54.673Z,38.14
2017-11-29T04:13:26.696Z,38.14
2017-11-29T04:13:58.731Z,38.23
2017-11-29T04:14:30.882Z,38.23
2017-11-29T04:15:03.496Z,38.14
2017-11-29T04:15:35.492Z,37.95
2017-11-29T04:16:07.503Z,38.04
2017-11-29T04:16:39.559Z,38.14
2017-11-29T04:17:11.555Z,38.14
2017-11-29T04:17:43.584Z,38.04
2017-11-29T04:18:15.589Z,38.23
2017-11-29T04:18:47.616Z,38.14
2017-11-29T04:19:19.644Z,38.04
2017-11-29T04:19:51.661Z,38.04
2017-11-29T04:20:23.675Z,38.14
2017-11-29T04:20:55.696Z,38.14
2017-11-29T04:21:27.726Z,38.04
2017-11-29T04:21:59.772Z,38.04
2017-11-29T04:22:31.785Z,38.23
2017-11-29T04:23:03.911Z,38.23
2017-11-29T04:23:35.922Z,38.04
2017-11-29T04:24:07.951Z,38.33
2017-11-29T04:24:39.972Z,37.95
2017-11-29T04:25:11.981Z,38.33
2017-11-29T04:25:43.993Z,38.23
2017-11-29T04:26:16.012Z,38.04
2017-11-29T04:26:48.031Z,38.23
2017-11-29T04:27:20.057Z,38.04
2017-11-29T04:27:52.058Z,38.04
2017-11-29T04:28:24.245Z,38.04
2017-11-29T04:28:56.367Z,38.14
2017-11-29T04:29:28.371Z,38.04
2017-11-29T04:30:00.371Z,38.23
2017-11-29T04:30:32.415Z,37.95
2017-11-29T04:31:04.449Z,37.95
2017-11-29T04:31:36.510Z,38.23
2017-11-29T04:32:08.542Z,38.14
2017-11-29T04:32:41.185Z,38.23
2017-11-29T04:33:13.217Z,38.33
2017-11-29T04:33:45.217Z,38.23
2017-11-29T04:34:17.255Z,38.23
2017-11-29T04:34:49.279Z,38.23
2017-11-29T04:35:21.319Z,38.04
2017-11-29T04:35:53.350Z,38.23
2017-11-29T04:36:25.387Z,38.23
2017-11-29T04:36:57.394Z,38.23
2017-11-29T04:37:29.388Z,38.04
2017-11-29T04:38:01.407Z,37.95
2017-11-29T04:38:33.427Z,38.14
2017-11-29T04:39:05.472Z,38.23
2017-11-29T04:39:37.517Z,38.23
2017-11-29T04:40:09.546Z,38.23
2017-11-29T04:40:41.692Z,37.95
2017-11-29T04:41:13.695Z,38.14
2017-11-29T04:41:45.716Z,38.04
2017-11-29T04:42:17.708Z,38.23
2017-11-29T04:42:49.756Z,38.33
2017-11-29T04:43:21.772Z,38.04
2017-11-29T04:43:53.859Z,38.04
2017-11-29T04:44:25.897Z,38.04
2017-11-29T04:44:58.651Z,38.53
2017-11-29T04:45:30.660Z,38.14
2017-11-29T04:46:02.673Z,38.43
2017-11-29T04:46:34.695Z,38.33
2017-11-29T04:47:06.802Z,38.04
2017-11-29T04:47:38.815Z,38.14
2017-11-29T04:48:10.869Z,38.23
2017-11-29T04:48:42.949Z,38.23
2017-11-29T04:49:14.950Z,38.23
2017-11-29T04:49:46.917Z,38.04
2017-11-29T04:50:18.961Z,38.23
2017-11-29T04:50:51.042Z,38.23
2017-11-29T04:51:23.088Z,38.04
2017-11-29T04:51:55.082Z,38.04
2017-11-29T04:52:27.097Z,37.95
2017-11-29T04:52:59.123Z,38.14
2017-11-29T04:53:31.153Z,38.04
2017-11-29T04:54:03.167Z,38.14
2017-11-29T04:54:35.191Z,38.14
2017-11-29T04:55:07.220Z,38.04
2017-11-29T04:55:39.266Z,37.95
2017-11-29T04:56:11.301Z,38.33
2017-11-29T04:56:43.354Z,38.23
2017-11-29T04:57:15.385Z,37.95
2017-11-29T04:57:47.378Z,38.04
2017-11-29T04:58:19.415Z,38.14
2017-11-29T04:58:51.456Z,38.04
2017-11-29T04:59:23.495Z,38.04
2017-11-29T04:59:55.554Z,38.14
2017-11-29T05:00:27.688Z,38.14
2017-11-29T05:00:59.642Z,38.14
2017-11-29T05:01:31.645Z,38.23
2017-11-29T05:02:03.686Z,38.04
2017-11-29T05:02:36.252Z,37.95
2017-11-29T05:03:08.292Z,38.04
2017-11-29T05:03:40.324Z,38.04
2017-11-29T05:04:12.381Z,38.04
2017-11-29T05:04:44.375Z,38.04
2017-11-29T05:05:16.406Z,38.23
2017-11-29T05:05:48.431Z,38.14
2017-11-29T05:06:20.584Z,37.95
2017-11-29T05:06:52.558Z,38.23
2017-11-29T05:07:24.582Z,38.14
2017-11-29T05:07:56.723Z,38.04
2017-11-29T05:08:28.692Z,38.04
2017-11-29T05:09:00.687Z,38.23
2017-11-29T05:09:32.740Z,38.04
2017-11-29T05:10:04.827Z,38.23
2017-11-29T05:10:37.517Z,38.14
2017-11-29T05:11:10.847Z,38.14
2017-11-29T05:11:42.860Z,37.95
2017-11-29T05:12:14.876Z,37.95
2017-11-29T05:12:46.897Z,37.95
2017-11-29T05:13:18.937Z,37.85
2017-11-29T05:13:50.959Z,37.95
2017-11-29T05:14:22.987Z,37.95
2017-11-29T05:14:54.997Z,37.95
2017-11-29T05:15:27.038Z,37.95
2017-11-29T05:15:59.060Z,37.95
2017-11-29T05:16:31.074Z,37.95
2017-11-29T05:17:03.106Z,37.95
2017-11-29T05:17:35.155Z,38.04
2017-11-29T05:18:07.211Z,37.95
2017-11-29T05:18:39.242Z,37.95
2017-11-29T05:19:11.329Z,37.95
2017-11-29T05:19:43.356Z,37.95
2017-11-29T05:20:15.449Z,37.95
2017-11-29T05:20:47.471Z,37.95
2017-11-29T05:21:19.511Z,37.95
2017-11-29T05:21:51.520Z,38.04
2017-11-29T05:22:23.551Z,37.95
2017-11-29T05:22:55.604Z,37.85
2017-11-29T05:23:27.715Z,37.95
2017-11-29T05:23:59.725Z,37.95
2017-11-29T05:24:31.750Z,37.95
2017-11-29T05:25:03.768Z,37.95
2017-11-29T05:25:35.826Z,38.04
2017-11-29T05:26:07.833Z,38.04
2017-11-29T05:26:39.869Z,37.95
2017-11-29T05:27:11.909Z,38.14
2017-11-29T05:27:43.975Z,37.95
2017-11-29T05:28:15.981Z,38.04
2017-11-29T05:28:48.054Z,37.95
2017-11-29T05:29:20.172Z,37.95
2017-11-29T05:29:52.179Z,38.04
2017-11-29T05:30:24.188Z,38.04
2017-11-29T05:30:56.209Z,38.04
2017-11-29T05:31:28.222Z,37.75
2017-11-29T05:32:00.266Z,38.04
2017-11-29T05:32:32.278Z,38.14
2017-11-29T05:33:04.254Z,37.95
2017-11-29T05:33:36.249Z,38.14
2017-11-29T05:34:08.323Z,38.14
2017-11-29T05:34:40.352Z,38.04
2017-11-29T05:35:12.404Z,38.04
2017-11-29T05:35:44.431Z,37.95
2017-11-29T05:36:16.440Z,38.04
2017-11-29T05:36:48.441Z,38.14
2017-11-29T05:37:20.465Z,38.04
2017-11-29T05:37:52.520Z,38.04
2017-11-29T05:38:24.534Z,37.95
2017-11-29T05:38:56.596Z,37.75
2017-11-29T05:39:28.620Z,38.04
2017-11-29T05:40:00.634Z,37.75
2017-11-29T05:40:32.668Z,38.04
2017-11-29T05:41:04.711Z,37.75
2017-11-29T05:41:36.741Z,37.65
2017-11-29T05:42:08.745Z,38.14
2017-11-29T05:42:40.745Z,38.04
2017-11-29T05:43:12.764Z,38.14
2017-11-29T05:43:44.794Z,38.14
2017-11-29T05:44:16.891Z,38.14
2017-11-29T05:44:48.906Z,38.14
2017-11-29T05:45:20.948Z,38.04
2017-11-29T05:45:53.012Z,38.14
2017-11-29T05:46:25.046Z,38.14
2017-11-29T05:46:57.075Z,37.95
2017-11-29T05:47:29.122Z,38.14
2017-11-29T05:48:01.150Z,37.95
2017-11-29T05:48:33.165Z,38.14
2017-11-29T05:49:05.208Z,38.23
2017-11-29T05:49:37.246Z,38.04
2017-11-29T05:50:09.255Z,38.04
2017-11-29T05:50:41.304Z,38.14
2017-11-29T05:51:13.333Z,38.04
2017-11-29T05:51:45.342Z,38.04
2017-11-29T05:52:17.358Z,38.14
2017-11-29T05:52:49.375Z,38.04
2017-11-29T05:53:21.372Z,38.04
2017-11-29T05:53:53.451Z,37.85
2017-11-29T05:54:25.464Z,38.14
2017-11-29T05:54:57.472Z,38.04
2017-11-29T05:55:29.442Z,37.75
2017-11-29T05:56:01.478Z,38.04
2017-11-29T05:56:33.483Z,38.04
2017-11-29T05:57:05.703Z,38.14
2017-11-29T05:57:37.784Z,38.04
2017-11-29T05:58:09.823Z,37.95
2017-11-29T05:58:41.812Z,38.23
2017-11-29T05:59:13.837Z,38.04
2017-11-29T05:59:45.855Z,38.14
2017-11-29T06:00:17.895Z,38.14
2017-11-29T06:00:49.916Z,37.85
2017-11-29T06:01:21.995Z,37.85
2017-11-29T06:01:54.073Z,38.14
2017-11-29T06:02:26.086Z,38.14
2017-11-29T06:02:58.108Z,37.95
2017-11-29T06:03:30.135Z,38.14
2017-11-29T06:04:02.174Z,38.04
2017-11-29T06:04:34.196Z,38.04
2017-11-29T06:05:06.253Z,38.14
2017-11-29T06:05:38.267Z,38.04
2017-11-29T06:06:10.287Z,38.14
2017-11-29T06:06:42.435Z,38.14
2017-11-29T06:07:14.653Z,37.95
2017-11-29T06:07:47.553Z,38.14
2017-11-29T06:08:19.604Z,38.04
2017-11-29T06:08:51.711Z,38.04
2017-11-29T06:09:23.754Z,38.14
2017-11-29T06:09:55.799Z,38.14
2017-11-29T06:10:27.826Z,37.95
2017-11-29T06:10:59.912Z,38.14
2017-11-29T06:11:31.915Z,38.14
2017-11-29T06:12:03.959Z,38.23
2017-11-29T06:12:35.989Z,38.04
2017-11-29T06:13:11.935Z,38.14
2017-11-29T06:13:43.971Z,38.23
2017-11-29T06:14:16.017Z,38.04
2017-11-29T06:14:48.113Z,38.14
2017-11-29T06:15:20.128Z,38.04
2017-11-29T06:15:52.121Z,38.04
2017-11-29T06:16:24.155Z,37.95
2017-11-29T06:16:56.282Z,37.85
2017-11-29T06:17:28.289Z,38.14
2017-11-29T06:18:00.311Z,38.04
2017-11-29T06:18:32.436Z,37.95
2017-11-29T06:19:04.658Z,38.04
2017-11-29T06:19:36.664Z,37.95
2017-11-29T06:20:08.705Z,37.85
2017-11-29T06:20:40.762Z,37.85
2017-11-29T06:21:12.810Z,38.14
2017-11-29T06:21:44.838Z,38.23
2017-11-29T06:22:16.878Z,38.23
2017-11-29T06:22:48.938Z,37.85
2017-11-29T06:23:20.976Z,38.23
2017-11-29T06:23:53.023Z,38.23
2017-11-29T06:24:25.037Z,37.95
2017-11-29T06:24:57.124Z,37.75
2017-11-29T06:25:29.331Z,37.85
2017-11-29T06:26:01.341Z,38.14
2017-11-29T06:26:33.347Z,38.04
2017-11-29T06:27:06.319Z,37.85
2017-11-29T06:27:38.350Z,37.85
2017-11-29T06:28:10.338Z,38.04
2017-11-29T06:28:42.465Z,37.85
2017-11-29T06:29:14.504Z,38.23
2017-11-29T06:29:46.571Z,38.04
2017-11-29T06:30:18.537Z,37.95
2017-11-29T06:30:50.576Z,37.85
2017-11-29T06:31:22.621Z,38.23
2017-11-29T06:31:54.663Z,38.04
2017-11-29T06:32:26.677Z,37.95
2017-11-29T06:32:58.690Z,38.04
2017-11-29T06:33:30.723Z,37.95
2017-11-29T06:34:02.813Z,37.95
2017-11-29T06:34:34.822Z,38.04
2017-11-29T06:35:06.797Z,37.95
2017-11-29T06:35:38.900Z,37.95
2017-11-29T06:36:10.987Z,37.95
2017-11-29T06:36:43.025Z,38.04
2017-11-29T06:37:15.045Z,37.95
2017-11-29T06:37:47.067Z,37.65
2017-11-29T06:38:19.097Z,37.85
2017-11-29T06:38:51.150Z,37.85
2017-11-29T06:39:23.739Z,37.85
2017-11-29T06:39:55.787Z,37.85
2017-11-29T06:40:27.819Z,37.95
2017-11-29T06:40:59.888Z,37.85
2017-11-29T06:41:31.883Z,37.85
2017-11-29T06:42:03.895Z,37.85
2017-11-29T06:42:35.912Z,37.95
2017-11-29T06:43:07.961Z,37.75
2017-11-29T06:43:39.994Z,37.85
2017-11-29T06:44:12.031Z,37.85
2017-11-29T06:44:44.068Z,37.85
2017-11-29T06:45:18.728Z,38.04
2017-11-29T06:45:50.744Z,37.95
2017-11-29T06:46:22.759Z,37.75
2017-11-29T06:46:54.800Z,37.85
2017-11-29T06:47:26.993Z,37.75
2017-11-29T06:47:59.097Z,37.95
2017-11-29T06:48:31.110Z,37.95
2017-11-29T06:49:03.116Z,37.75
2017-11-29T06:49:35.177Z,37.75
2017-11-29T06:50:07.205Z,37.85
2017-11-29T06:50:39.171Z,37.75
2017-11-29T06:51:11.995Z,37.75
2017-11-29T06:51:44.000Z,37.95
2017-11-29T06:52:16.015Z,37.85
2017-11-29T06:52:48.068Z,37.95
2017-11-29T06:53:20.090Z,37.95
2017-11-29T06:53:52.135Z,37.95
2017-11-29T06:54:24.169Z,37.85
2017-11-29T06:54:56.218Z,37.75
2017-11-29T06:55:28.350Z,37.85
2017-11-29T06:56:00.360Z,37.75
